Greenwich, CT (06830)

8:02 AM EDT on March 27, 2015 (GMT -0400)
Central Greenwich | | Change Station
CLOSE
Current Station
Personal Weather Station
Location: Greenwich, CT
Elevation: 31 ft
Nearby Weather Stations

Elev 31 ft 41.02 °N, 73.63 °W | Updated 14 seconds ago

Rain
Rain
38.7 °F
Feels Like 39 °F
N
0.0
Wind Variable Wind from SSW
Gusts 0.0 mph

Today
High -- | Low -- °F
--% Chance of Precip.
Yesterday
High -- | Low -- °F
Precip. -- in
6:46 AM 7:13 PM
First Quarter, 52% visible
Pressure 29.74 in
Visibility 7.0 miles
Clouds Few 700 ft
Overcast 10000 ft
Windchill 39 °F
Dew Point 37 °F
Humidity 95%
Rainfall 0.35 in
Snow Depth Not available.
UV 1.0 out of 12
Pollen 3.40 out of 12
Air Quality Not available.
Flu Activity Not available.
METAR KHPN 271156Z 34007KT 7SM FEW007 OVC100 03/02 A2973 RMK AO2 RAE54 SLP071 P0003 60027 70054 T00280017 10050 20028 50008

More Conditions Fewer Conditions

Pressure 29.74 in
Visibility 7.0 miles
Clouds Few 700 ft
Overcast 10000 ft
Windchill 39 °F
Dew Point 37 °F
Humidity 95%
Rainfall 0.35 in
Snow Depth Not available.
UV 1.0 out of 12
Pollen 3.40 out of 12
Air Quality Not available.
Flu Activity Not available.
METAR KHPN 271156Z 34007KT 7SM FEW007 OVC100 03/02 A2973 RMK AO2 RAE54 SLP071 P0003 60027 70054 T00280017 10050 20028 50008

More Conditions Fewer Conditions

10-Day Weather Forecast

Almanac

Astronomy

Mar. 27, 2015 Rise Set
Actual Time
Civil Twilight
Nautical Twilight
Astronomical Twilight
Moon
Length of Visible Light
Length of Day
Tomorrow will be .
, % of the Moon is Illuminated

Today's Extremes

State Highs State Lows

Community

WunderPhotos

Upload Photos

1,808,711 photos uploaded!

WunderBlogs® & News

Nearby

Air Quality

  Air Quality AQ Index Pollutant
Not available.

Snow Depth

Station Depth Elevation

Earthquake Activity

City Distance Mag. Time & Date
Minimum magnitude displayed is 2.5.

Coastal Water Temperatures

Place Temperature

Stations

Nearby Weather Stations

Station Location Temp. Windchill Dew Point Humidity Wind Precip. Elev Updated Type